sensor_id;sensor_type;location;lat;lon;timestamp;P1;durP1;ratioP1;P2;durP2;ratioP2
54835;SDS011;43486;43.574;1.476;2023-08-12T00:00:18;10.18;;;5.53;;
54835;SDS011;43486;43.574;1.476;2023-08-12T00:02:44;9.10;;;4.78;;
54835;SDS011;43486;43.574;1.476;2023-08-12T00:05:10;14.05;;;5.28;;
54835;SDS011;43486;43.574;1.476;2023-08-12T00:07:36;10.38;;;4.93;;
54835;SDS011;43486;43.574;1.476;2023-08-12T00:10:02;10.75;;;5.45;;
54835;SDS011;43486;43.574;1.476;2023-08-12T00:12:29;7.85;;;4.25;;
54835;SDS011;43486;43.574;1.476;2023-08-12T00:14:58;9.07;;;4.85;;
54835;SDS011;43486;43.574;1.476;2023-08-12T00:17:23;16.95;;;6.43;;
54835;SDS011;43486;43.574;1.476;2023-08-12T00:19:49;10.82;;;5.70;;
54835;SDS011;43486;43.574;1.476;2023-08-12T00:22:14;9.95;;;5.43;;
54835;SDS011;43486;43.574;1.476;2023-08-12T00:24:40;8.80;;;5.45;;
54835;SDS011;43486;43.574;1.476;2023-08-12T00:27:05;12.13;;;5.35;;
54835;SDS011;43486;43.574;1.476;2023-08-12T00:29:32;11.15;;;5.32;;
54835;SDS011;43486;43.574;1.476;2023-08-12T00:31:58;10.05;;;5.15;;
54835;SDS011;43486;43.574;1.476;2023-08-12T00:34:23;9.65;;;5.18;;
54835;SDS011;43486;43.574;1.476;2023-08-12T00:36:49;9.77;;;5.20;;
54835;SDS011;43486;43.574;1.476;2023-08-12T00:39:14;10.48;;;4.75;;
54835;SDS011;43486;43.574;1.476;2023-08-12T00:41:40;10.07;;;5.38;;
54835;SDS011;43486;43.574;1.476;2023-08-12T00:44:06;9.30;;;4.53;;
54835;SDS011;43486;43.574;1.476;2023-08-12T00:46:31;7.88;;;4.63;;
54835;SDS011;43486;43.574;1.476;2023-08-12T00:48:57;8.02;;;4.53;;
54835;SDS011;43486;43.574;1.476;2023-08-12T00:51:23;12.88;;;5.47;;
54835;SDS011;43486;43.574;1.476;2023-08-12T00:53:48;10.65;;;5.30;;
54835;SDS011;43486;43.574;1.476;2023-08-12T00:56:15;12.73;;;5.13;;
54835;SDS011;43486;43.574;1.476;2023-08-12T00:58:40;8.52;;;4.88;;
54835;SDS011;43486;43.574;1.476;2023-08-12T01:01:06;14.88;;;5.60;;
54835;SDS011;43486;43.574;1.476;2023-08-12T01:03:32;8.85;;;4.10;;
54835;SDS011;43486;43.574;1.476;2023-08-12T01:05:57;8.05;;;4.57;;
54835;SDS011;43486;43.574;1.476;2023-08-12T01:08:24;9.07;;;4.63;;
54835;SDS011;43486;43.574;1.476;2023-08-12T01:10:56;9.48;;;5.60;;
54835;SDS011;43486;43.574;1.476;2023-08-12T01:13:34;9.07;;;5.53;;
54835;SDS011;43486;43.574;1.476;2023-08-12T01:16:08;10.65;;;4.97;;
54835;SDS011;43486;43.574;1.476;2023-08-12T01:18:34;8.93;;;5.15;;
54835;SDS011;43486;43.574;1.476;2023-08-12T01:21:00;7.60;;;4.78;;
54835;SDS011;43486;43.574;1.476;2023-08-12T01:23:28;6.55;;;4.32;;
54835;SDS011;43486;43.574;1.476;2023-08-12T01:25:54;9.40;;;4.35;;
54835;SDS011;43486;43.574;1.476;2023-08-12T01:28:20;8.60;;;4.63;;
54835;SDS011;43486;43.574;1.476;2023-08-12T01:33:28;9.65;;;3.97;;
54835;SDS011;43486;43.574;1.476;2023-08-12T01:36:00;12.15;;;5.47;;
54835;SDS011;43486;43.574;1.476;2023-08-12T01:38:38;11.15;;;5.38;;
54835;SDS011;43486;43.574;1.476;2023-08-12T01:41:03;11.95;;;5.20;;
54835;SDS011;43486;43.574;1.476;2023-08-12T01:43:29;7.50;;;4.55;;
54835;SDS011;43486;43.574;1.476;2023-08-12T01:45:55;7.80;;;4.50;;
54835;SDS011;43486;43.574;1.476;2023-08-12T01:48:21;7.13;;;4.38;;
54835;SDS011;43486;43.574;1.476;2023-08-12T01:50:48;9.30;;;5.72;;
54835;SDS011;43486;43.574;1.476;2023-08-12T01:53:13;12.70;;;4.88;;
54835;SDS011;43486;43.574;1.476;2023-08-12T01:55:42;8.65;;;4.32;;
54835;SDS011;43486;43.574;1.476;2023-08-12T01:58:08;8.95;;;4.47;;
54835;SDS011;43486;43.574;1.476;2023-08-12T02:00:33;12.57;;;4.97;;
54835;SDS011;43486;43.574;1.476;2023-08-12T02:02:59;7.90;;;5.05;;
54835;SDS011;43486;43.574;1.476;2023-08-12T02:05:24;8.55;;;4.93;;
54835;SDS011;43486;43.574;1.476;2023-08-12T02:07:50;7.80;;;4.05;;
54835;SDS011;43486;43.574;1.476;2023-08-12T02:10:15;10.02;;;5.07;;
54835;SDS011;43486;43.574;1.476;2023-08-12T02:12:40;8.80;;;4.47;;
54835;SDS011;43486;43.574;1.476;2023-08-12T02:15:06;8.02;;;5.07;;
54835;SDS011;43486;43.574;1.476;2023-08-12T02:17:31;7.50;;;4.43;;
54835;SDS011;43486;43.574;1.476;2023-08-12T02:19:57;9.57;;;3.95;;
54835;SDS011;43486;43.574;1.476;2023-08-12T02:22:22;8.60;;;4.60;;
54835;SDS011;43486;43.574;1.476;2023-08-12T02:24:48;10.20;;;5.00;;
54835;SDS011;43486;43.574;1.476;2023-08-12T02:27:13;9.75;;;5.00;;
54835;SDS011;43486;43.574;1.476;2023-08-12T02:29:39;6.80;;;4.18;;
54835;SDS011;43486;43.574;1.476;2023-08-12T02:32:04;9.25;;;3.80;;
54835;SDS011;43486;43.574;1.476;2023-08-12T02:34:30;6.72;;;4.70;;
54835;SDS011;43486;43.574;1.476;2023-08-12T02:36:55;8.52;;;3.83;;
54835;SDS011;43486;43.574;1.476;2023-08-12T02:39:20;12.07;;;5.32;;
54835;SDS011;43486;43.574;1.476;2023-08-12T02:41:46;9.43;;;5.13;;
54835;SDS011;43486;43.574;1.476;2023-08-12T02:44:11;9.75;;;4.43;;
54835;SDS011;43486;43.574;1.476;2023-08-12T02:46:37;8.20;;;4.88;;
54835;SDS011;43486;43.574;1.476;2023-08-12T02:49:02;8.95;;;3.90;;
54835;SDS011;43486;43.574;1.476;2023-08-12T02:51:28;11.45;;;3.75;;
54835;SDS011;43486;43.574;1.476;2023-08-12T02:53:53;8.73;;;4.32;;
54835;SDS011;43486;43.574;1.476;2023-08-12T02:56:18;7.22;;;4.22;;
54835;SDS011;43486;43.574;1.476;2023-08-12T02:58:44;7.53;;;4.43;;
54835;SDS011;43486;43.574;1.476;2023-08-12T03:01:09;7.70;;;4.03;;
54835;SDS011;43486;43.574;1.476;2023-08-12T03:03:34;7.50;;;3.92;;
54835;SDS011;43486;43.574;1.476;2023-08-12T03:06:00;9.13;;;4.80;;
54835;SDS011;43486;43.574;1.476;2023-08-12T03:08:25;7.43;;;4.05;;
54835;SDS011;43486;43.574;1.476;2023-08-12T03:10:57;6.97;;;3.55;;
54835;SDS011;43486;43.574;1.476;2023-08-12T03:13:23;7.10;;;4.30;;
54835;SDS011;43486;43.574;1.476;2023-08-12T03:15:48;7.93;;;4.72;;
54835;SDS011;43486;43.574;1.476;2023-08-12T03:18:14;7.47;;;4.30;;
54835;SDS011;43486;43.574;1.476;2023-08-12T03:20:39;12.35;;;4.90;;
54835;SDS011;43486;43.574;1.476;2023-08-12T03:23:04;7.90;;;4.60;;
54835;SDS011;43486;43.574;1.476;2023-08-12T03:25:30;11.80;;;6.00;;
54835;SDS011;43486;43.574;1.476;2023-08-12T03:27:55;7.15;;;3.38;;
54835;SDS011;43486;43.574;1.476;2023-08-12T03:30:21;6.75;;;3.72;;
54835;SDS011;43486;43.574;1.476;2023-08-12T03:32:46;7.05;;;3.90;;
54835;SDS011;43486;43.574;1.476;2023-08-12T03:35:11;8.27;;;4.47;;
54835;SDS011;43486;43.574;1.476;2023-08-12T03:37:37;7.13;;;3.92;;
54835;SDS011;43486;43.574;1.476;2023-08-12T03:40:02;9.23;;;4.47;;
54835;SDS011;43486;43.574;1.476;2023-08-12T03:42:28;9.15;;;5.28;;
54835;SDS011;43486;43.574;1.476;2023-08-12T03:44:54;6.70;;;4.28;;
54835;SDS011;43486;43.574;1.476;2023-08-12T03:47:19;6.88;;;4.55;;
54835;SDS011;43486;43.574;1.476;2023-08-12T03:49:47;8.80;;;4.72;;
54835;SDS011;43486;43.574;1.476;2023-08-12T03:52:13;7.97;;;4.28;;
54835;SDS011;43486;43.574;1.476;2023-08-12T03:54:38;7.07;;;4.15;;
54835;SDS011;43486;43.574;1.476;2023-08-12T03:57:03;9.70;;;4.53;;
54835;SDS011;43486;43.574;1.476;2023-08-12T03:59:29;11.90;;;4.63;;
54835;SDS011;43486;43.574;1.476;2023-08-12T04:01:54;7.72;;;4.55;;
54835;SDS011;43486;43.574;1.476;2023-08-12T04:04:20;9.90;;;4.90;;
54835;SDS011;43486;43.574;1.476;2023-08-12T04:06:45;9.15;;;4.93;;
54835;SDS011;43486;43.574;1.476;2023-08-12T04:09:13;7.60;;;4.10;;
54835;SDS011;43486;43.574;1.476;2023-08-12T04:11:38;8.13;;;4.78;;
54835;SDS011;43486;43.574;1.476;2023-08-12T04:14:04;14.23;;;4.05;;
54835;SDS011;43486;43.574;1.476;2023-08-12T04:16:29;8.73;;;4.82;;
54835;SDS011;43486;43.574;1.476;2023-08-12T04:18:55;8.02;;;4.78;;
54835;SDS011;43486;43.574;1.476;2023-08-12T04:21:20;11.55;;;4.15;;
54835;SDS011;43486;43.574;1.476;2023-08-12T04:23:45;8.55;;;4.13;;
54835;SDS011;43486;43.574;1.476;2023-08-12T04:26:11;9.90;;;4.20;;
54835;SDS011;43486;43.574;1.476;2023-08-12T04:28:36;12.85;;;5.43;;
54835;SDS011;43486;43.574;1.476;2023-08-12T04:31:05;9.90;;;4.07;;
54835;SDS011;43486;43.574;1.476;2023-08-12T04:33:31;7.28;;;4.00;;
54835;SDS011;43486;43.574;1.476;2023-08-12T04:35:56;7.15;;;4.20;;
54835;SDS011;43486;43.574;1.476;2023-08-12T04:38:23;11.27;;;4.68;;
54835;SDS011;43486;43.574;1.476;2023-08-12T04:40:48;6.70;;;3.80;;
54835;SDS011;43486;43.574;1.476;2023-08-12T04:43:14;9.85;;;4.93;;
54835;SDS011;43486;43.574;1.476;2023-08-12T04:45:39;6.80;;;3.58;;
54835;SDS011;43486;43.574;1.476;2023-08-12T04:48:05;8.65;;;5.07;;
54835;SDS011;43486;43.574;1.476;2023-08-12T04:50:31;12.80;;;4.28;;
54835;SDS011;43486;43.574;1.476;2023-08-12T04:52:56;11.38;;;5.18;;
54835;SDS011;43486;43.574;1.476;2023-08-12T04:55:22;11.23;;;5.28;;
54835;SDS011;43486;43.574;1.476;2023-08-12T04:57:49;7.68;;;4.15;;
54835;SDS011;43486;43.574;1.476;2023-08-12T05:00:15;7.15;;;4.30;;
54835;SDS011;43486;43.574;1.476;2023-08-12T05:02:40;6.93;;;4.40;;
54835;SDS011;43486;43.574;1.476;2023-08-12T05:05:06;8.02;;;4.35;;
54835;SDS011;43486;43.574;1.476;2023-08-12T05:07:31;10.43;;;4.22;;
54835;SDS011;43486;43.574;1.476;2023-08-12T05:09:58;7.15;;;4.13;;
54835;SDS011;43486;43.574;1.476;2023-08-12T05:12:24;8.98;;;4.22;;
54835;SDS011;43486;43.574;1.476;2023-08-12T05:14:49;7.15;;;3.50;;
54835;SDS011;43486;43.574;1.476;2023-08-12T05:17:15;6.88;;;4.18;;
54835;SDS011;43486;43.574;1.476;2023-08-12T05:19:40;12.98;;;5.35;;
54835;SDS011;43486;43.574;1.476;2023-08-12T05:22:06;10.32;;;4.70;;
54835;SDS011;43486;43.574;1.476;2023-08-12T05:24:31;6.72;;;3.40;;
54835;SDS011;43486;43.574;1.476;2023-08-12T05:26:56;8.35;;;3.75;;
54835;SDS011;43486;43.574;1.476;2023-08-12T05:29:22;10.18;;;4.90;;
54835;SDS011;43486;43.574;1.476;2023-08-12T05:31:47;6.15;;;4.28;;
54835;SDS011;43486;43.574;1.476;2023-08-12T05:34:13;7.03;;;4.35;;
54835;SDS011;43486;43.574;1.476;2023-08-12T05:36:38;7.85;;;4.43;;
54835;SDS011;43486;43.574;1.476;2023-08-12T05:39:03;9.48;;;4.03;;
54835;SDS011;43486;43.574;1.476;2023-08-12T05:41:29;7.15;;;3.65;;
54835;SDS011;43486;43.574;1.476;2023-08-12T05:43:54;7.88;;;4.47;;
54835;SDS011;43486;43.574;1.476;2023-08-12T05:46:20;9.30;;;4.95;;
54835;SDS011;43486;43.574;1.476;2023-08-12T05:48:45;14.05;;;5.32;;
54835;SDS011;43486;43.574;1.476;2023-08-12T05:51:11;10.27;;;4.55;;
54835;SDS011;43486;43.574;1.476;2023-08-12T05:53:37;7.88;;;3.90;;
54835;SDS011;43486;43.574;1.476;2023-08-12T05:56:02;7.57;;;4.40;;
54835;SDS011;43486;43.574;1.476;2023-08-12T05:58:28;6.95;;;4.90;;
54835;SDS011;43486;43.574;1.476;2023-08-12T06:00:53;8.13;;;5.63;;
54835;SDS011;43486;43.574;1.476;2023-08-12T06:03:18;7.32;;;4.13;;
54835;SDS011;43486;43.574;1.476;2023-08-12T06:05:45;8.77;;;5.38;;
54835;SDS011;43486;43.574;1.476;2023-08-12T06:08:11;8.48;;;4.20;;
54835;SDS011;43486;43.574;1.476;2023-08-12T06:10:36;7.45;;;3.67;;
54835;SDS011;43486;43.574;1.476;2023-08-12T06:13:02;8.52;;;3.95;;
54835;SDS011;43486;43.574;1.476;2023-08-12T06:15:28;6.78;;;3.47;;
54835;SDS011;43486;43.574;1.476;2023-08-12T06:17:53;10.82;;;5.75;;
54835;SDS011;43486;43.574;1.476;2023-08-12T06:20:18;11.50;;;6.05;;
54835;SDS011;43486;43.574;1.476;2023-08-12T06:22:44;12.10;;;5.75;;
54835;SDS011;43486;43.574;1.476;2023-08-12T06:25:09;11.15;;;5.93;;
54835;SDS011;43486;43.574;1.476;2023-08-12T06:27:35;14.68;;;6.45;;
54835;SDS011;43486;43.574;1.476;2023-08-12T06:30:00;10.20;;;6.07;;
54835;SDS011;43486;43.574;1.476;2023-08-12T06:32:25;12.82;;;6.85;;
54835;SDS011;43486;43.574;1.476;2023-08-12T06:34:51;11.63;;;5.80;;
54835;SDS011;43486;43.574;1.476;2023-08-12T06:37:16;12.20;;;5.78;;
54835;SDS011;43486;43.574;1.476;2023-08-12T06:39:42;9.82;;;5.13;;
54835;SDS011;43486;43.574;1.476;2023-08-12T06:42:07;15.38;;;6.63;;
54835;SDS011;43486;43.574;1.476;2023-08-12T06:44:32;18.25;;;7.07;;
54835;SDS011;43486;43.574;1.476;2023-08-12T06:46:58;13.57;;;6.15;;
54835;SDS011;43486;43.574;1.476;2023-08-12T06:49:23;20.05;;;6.53;;
54835;SDS011;43486;43.574;1.476;2023-08-12T06:51:48;9.95;;;5.63;;
54835;SDS011;43486;43.574;1.476;2023-08-12T06:54:14;15.13;;;5.93;;
54835;SDS011;43486;43.574;1.476;2023-08-12T06:56:39;17.65;;;7.00;;
54835;SDS011;43486;43.574;1.476;2023-08-12T06:59:05;14.68;;;7.32;;
54835;SDS011;43486;43.574;1.476;2023-08-12T07:01:30;13.90;;;6.07;;
54835;SDS011;43486;43.574;1.476;2023-08-12T07:03:56;11.75;;;6.53;;
54835;SDS011;43486;43.574;1.476;2023-08-12T07:06:21;21.27;;;7.38;;
54835;SDS011;43486;43.574;1.476;2023-08-12T07:08:47;20.23;;;6.88;;
54835;SDS011;43486;43.574;1.476;2023-08-12T07:11:12;13.00;;;7.10;;
54835;SDS011;43486;43.574;1.476;2023-08-12T07:13:38;10.88;;;6.70;;
54835;SDS011;43486;43.574;1.476;2023-08-12T07:16:03;12.43;;;6.95;;
54835;SDS011;43486;43.574;1.476;2023-08-12T07:18:28;15.23;;;6.88;;
54835;SDS011;43486;43.574;1.476;2023-08-12T07:20:54;13.45;;;7.45;;
54835;SDS011;43486;43.574;1.476;2023-08-12T07:23:19;13.65;;;6.75;;
54835;SDS011;43486;43.574;1.476;2023-08-12T07:25:45;16.65;;;7.97;;
54835;SDS011;43486;43.574;1.476;2023-08-12T07:28:12;14.05;;;9.43;;
54835;SDS011;43486;43.574;1.476;2023-08-12T07:30:37;15.13;;;5.97;;
54835;SDS011;43486;43.574;1.476;2023-08-12T07:33:03;13.00;;;6.80;;
54835;SDS011;43486;43.574;1.476;2023-08-12T07:35:29;19.77;;;8.25;;
54835;SDS011;43486;43.574;1.476;2023-08-12T07:37:54;12.00;;;6.93;;
54835;SDS011;43486;43.574;1.476;2023-08-12T07:40:20;19.30;;;6.80;;
54835;SDS011;43486;43.574;1.476;2023-08-12T07:42:45;11.82;;;8.27;;
54835;SDS011;43486;43.574;1.476;2023-08-12T07:45:10;12.32;;;7.07;;
54835;SDS011;43486;43.574;1.476;2023-08-12T07:47:36;19.92;;;7.82;;
54835;SDS011;43486;43.574;1.476;2023-08-12T07:50:01;13.43;;;6.82;;
54835;SDS011;43486;43.574;1.476;2023-08-12T07:52:27;10.88;;;6.40;;
54835;SDS011;43486;43.574;1.476;2023-08-12T07:54:52;18.38;;;8.73;;
54835;SDS011;43486;43.574;1.476;2023-08-12T07:57:17;12.02;;;7.35;;
54835;SDS011;43486;43.574;1.476;2023-08-12T07:59:45;18.58;;;8.20;;
54835;SDS011;43486;43.574;1.476;2023-08-12T08:02:10;18.67;;;8.35;;
54835;SDS011;43486;43.574;1.476;2023-08-12T08:04:36;12.50;;;7.90;;
54835;SDS011;43486;43.574;1.476;2023-08-12T08:07:02;15.02;;;8.48;;
54835;SDS011;43486;43.574;1.476;2023-08-12T08:09:28;11.60;;;7.22;;
54835;SDS011;43486;43.574;1.476;2023-08-12T08:11:53;24.30;;;7.65;;
54835;SDS011;43486;43.574;1.476;2023-08-12T08:14:19;20.83;;;8.93;;
54835;SDS011;43486;43.574;1.476;2023-08-12T08:16:44;17.02;;;8.60;;
54835;SDS011;43486;43.574;1.476;2023-08-12T08:19:10;14.13;;;8.65;;
54835;SDS011;43486;43.574;1.476;2023-08-12T08:21:36;19.92;;;8.25;;
54835;SDS011;43486;43.574;1.476;2023-08-12T08:24:01;13.38;;;8.05;;
54835;SDS011;43486;43.574;1.476;2023-08-12T08:26:27;15.10;;;8.50;;
54835;SDS011;43486;43.574;1.476;2023-08-12T08:28:52;23.77;;;8.63;;
54835;SDS011;43486;43.574;1.476;2023-08-12T08:31:18;15.30;;;7.63;;
54835;SDS011;43486;43.574;1.476;2023-08-12T08:33:44;15.85;;;7.50;;
54835;SDS011;43486;43.574;1.476;2023-08-12T08:36:09;13.88;;;8.25;;
54835;SDS011;43486;43.574;1.476;2023-08-12T08:38:35;12.63;;;8.40;;
54835;SDS011;43486;43.574;1.476;2023-08-12T08:41:01;14.85;;;9.52;;
54835;SDS011;43486;43.574;1.476;2023-08-12T08:43:29;15.52;;;7.15;;
54835;SDS011;43486;43.574;1.476;2023-08-12T08:45:54;12.10;;;6.85;;
54835;SDS011;43486;43.574;1.476;2023-08-12T08:48:20;15.25;;;7.28;;
54835;SDS011;43486;43.574;1.476;2023-08-12T08:50:46;16.30;;;9.10;;
54835;SDS011;43486;43.574;1.476;2023-08-12T08:53:13;15.95;;;8.25;;
54835;SDS011;43486;43.574;1.476;2023-08-12T08:55:40;28.83;;;8.93;;
54835;SDS011;43486;43.574;1.476;2023-08-12T08:58:06;18.25;;;9.23;;
54835;SDS011;43486;43.574;1.476;2023-08-12T09:00:31;11.70;;;7.53;;
54835;SDS011;43486;43.574;1.476;2023-08-12T09:02:57;13.73;;;7.45;;
54835;SDS011;43486;43.574;1.476;2023-08-12T09:05:22;14.80;;;9.18;;
54835;SDS011;43486;43.574;1.476;2023-08-12T09:07:48;22.02;;;8.18;;
54835;SDS011;43486;43.574;1.476;2023-08-12T09:10:15;14.60;;;8.90;;
54835;SDS011;43486;43.574;1.476;2023-08-12T09:12:43;14.68;;;8.75;;
54835;SDS011;43486;43.574;1.476;2023-08-12T09:15:08;11.50;;;8.95;;
54835;SDS011;43486;43.574;1.476;2023-08-12T09:17:34;14.73;;;8.15;;
54835;SDS011;43486;43.574;1.476;2023-08-12T09:20:00;13.25;;;9.15;;
54835;SDS011;43486;43.574;1.476;2023-08-12T09:22:25;30.33;;;10.05;;
54835;SDS011;43486;43.574;1.476;2023-08-12T09:24:57;16.52;;;8.55;;
54835;SDS011;43486;43.574;1.476;2023-08-12T09:27:23;13.10;;;8.02;;
54835;SDS011;43486;43.574;1.476;2023-08-12T09:29:49;11.77;;;7.28;;
54835;SDS011;43486;43.574;1.476;2023-08-12T09:32:19;10.77;;;6.80;;
54835;SDS011;43486;43.574;1.476;2023-08-12T09:34:48;14.25;;;7.43;;
54835;SDS011;43486;43.574;1.476;2023-08-12T09:37:14;14.73;;;8.02;;
54835;SDS011;43486;43.574;1.476;2023-08-12T09:39:40;13.30;;;6.70;;
54835;SDS011;43486;43.574;1.476;2023-08-12T09:42:06;9.35;;;5.93;;
54835;SDS011;43486;43.574;1.476;2023-08-12T09:44:34;9.82;;;6.45;;
54835;SDS011;43486;43.574;1.476;2023-08-12T09:47:00;11.88;;;6.45;;
54835;SDS011;43486;43.574;1.476;2023-08-12T09:49:25;9.98;;;7.35;;
54835;SDS011;43486;43.574;1.476;2023-08-12T09:51:51;13.98;;;6.35;;
54835;SDS011;43486;43.574;1.476;2023-08-12T09:54:17;18.50;;;6.68;;
54835;SDS011;43486;43.574;1.476;2023-08-12T09:56:44;15.35;;;7.85;;
54835;SDS011;43486;43.574;1.476;2023-08-12T09:59:12;10.93;;;6.72;;
54835;SDS011;43486;43.574;1.476;2023-08-12T10:01:42;14.73;;;6.38;;
54835;SDS011;43486;43.574;1.476;2023-08-12T10:04:09;12.48;;;7.38;;
54835;SDS011;43486;43.574;1.476;2023-08-12T10:06:38;8.55;;;5.82;;
54835;SDS011;43486;43.574;1.476;2023-08-12T10:09:04;15.73;;;5.78;;
54835;SDS011;43486;43.574;1.476;2023-08-12T10:11:32;12.35;;;7.00;;
54835;SDS011;43486;43.574;1.476;2023-08-12T10:13:58;9.90;;;5.97;;
54835;SDS011;43486;43.574;1.476;2023-08-12T10:16:26;12.00;;;7.07;;
54835;SDS011;43486;43.574;1.476;2023-08-12T10:18:52;10.13;;;5.90;;
54835;SDS011;43486;43.574;1.476;2023-08-12T10:21:17;12.40;;;5.70;;
54835;SDS011;43486;43.574;1.476;2023-08-12T10:23:43;8.75;;;6.20;;
54835;SDS011;43486;43.574;1.476;2023-08-12T10:26:09;12.00;;;6.30;;
54835;SDS011;43486;43.574;1.476;2023-08-12T10:28:34;14.95;;;6.72;;
54835;SDS011;43486;43.574;1.476;2023-08-12T10:31:03;13.45;;;7.90;;
54835;SDS011;43486;43.574;1.476;2023-08-12T10:33:29;13.10;;;6.22;;
54835;SDS011;43486;43.574;1.476;2023-08-12T10:35:55;10.38;;;6.10;;
54835;SDS011;43486;43.574;1.476;2023-08-12T10:38:20;12.55;;;6.65;;
54835;SDS011;43486;43.574;1.476;2023-08-12T10:40:46;13.63;;;6.00;;
54835;SDS011;43486;43.574;1.476;2023-08-12T10:43:12;10.98;;;6.15;;
54835;SDS011;43486;43.574;1.476;2023-08-12T10:45:48;8.20;;;5.43;;
54835;SDS011;43486;43.574;1.476;2023-08-12T10:48:21;9.90;;;5.60;;
54835;SDS011;43486;43.574;1.476;2023-08-12T10:50:48;13.63;;;6.10;;
54835;SDS011;43486;43.574;1.476;2023-08-12T10:53:26;9.32;;;5.25;;
54835;SDS011;43486;43.574;1.476;2023-08-12T10:55:59;12.77;;;6.53;;
54835;SDS011;43486;43.574;1.476;2023-08-12T11:01:11;11.00;;;6.00;;
54835;SDS011;43486;43.574;1.476;2023-08-12T11:03:41;9.40;;;5.57;;
54835;SDS011;43486;43.574;1.476;2023-08-12T11:06:08;11.15;;;6.15;;
54835;SDS011;43486;43.574;1.476;2023-08-12T11:08:45;15.57;;;6.30;;
54835;SDS011;43486;43.574;1.476;2023-08-12T11:11:23;9.95;;;5.78;;
54835;SDS011;43486;43.574;1.476;2023-08-12T11:13:53;14.57;;;6.10;;
54835;SDS011;43486;43.574;1.476;2023-08-12T11:16:19;10.70;;;5.55;;
54835;SDS011;43486;43.574;1.476;2023-08-12T11:18:57;10.48;;;5.70;;
54835;SDS011;43486;43.574;1.476;2023-08-12T11:21:22;10.55;;;4.93;;
54835;SDS011;43486;43.574;1.476;2023-08-12T11:23:48;10.60;;;5.47;;
54835;SDS011;43486;43.574;1.476;2023-08-12T11:26:15;10.48;;;5.82;;
54835;SDS011;43486;43.574;1.476;2023-08-12T11:28:40;12.05;;;5.93;;
54835;SDS011;43486;43.574;1.476;2023-08-12T11:31:06;14.75;;;5.68;;
54835;SDS011;43486;43.574;1.476;2023-08-12T11:33:31;12.10;;;5.47;;
54835;SDS011;43486;43.574;1.476;2023-08-12T11:35:56;11.00;;;5.82;;
54835;SDS011;43486;43.574;1.476;2023-08-12T11:38:22;10.90;;;5.25;;
54835;SDS011;43486;43.574;1.476;2023-08-12T11:40:47;11.00;;;5.70;;
54835;SDS011;43486;43.574;1.476;2023-08-12T11:43:12;8.90;;;5.30;;
54835;SDS011;43486;43.574;1.476;2023-08-12T11:45:41;9.05;;;5.18;;
54835;SDS011;43486;43.574;1.476;2023-08-12T11:48:06;9.00;;;5.05;;
54835;SDS011;43486;43.574;1.476;2023-08-12T11:50:32;14.15;;;5.60;;
54835;SDS011;43486;43.574;1.476;2023-08-12T11:52:58;10.90;;;5.95;;
54835;SDS011;43486;43.574;1.476;2023-08-12T11:55:24;12.70;;;5.53;;
54835;SDS011;43486;43.574;1.476;2023-08-12T11:57:50;10.70;;;5.57;;
54835;SDS011;43486;43.574;1.476;2023-08-12T12:00:16;9.02;;;5.47;;
54835;SDS011;43486;43.574;1.476;2023-08-12T12:02:50;9.30;;;5.30;;
54835;SDS011;43486;43.574;1.476;2023-08-12T12:05:17;8.35;;;5.10;;
54835;SDS011;43486;43.574;1.476;2023-08-12T12:07:43;13.20;;;5.75;;
54835;SDS011;43486;43.574;1.476;2023-08-12T12:10:12;9.25;;;5.40;;
54835;SDS011;43486;43.574;1.476;2023-08-12T12:12:39;8.70;;;5.32;;
54835;SDS011;43486;43.574;1.476;2023-08-12T12:15:04;10.18;;;6.85;;
54835;SDS011;43486;43.574;1.476;2023-08-12T12:17:30;11.88;;;5.53;;
54835;SDS011;43486;43.574;1.476;2023-08-12T12:19:56;8.77;;;5.70;;
54835;SDS011;43486;43.574;1.476;2023-08-12T12:22:29;11.98;;;6.40;;
54835;SDS011;43486;43.574;1.476;2023-08-12T12:24:57;10.75;;;6.53;;
54835;SDS011;43486;43.574;1.476;2023-08-12T12:27:24;9.05;;;5.05;;
54835;SDS011;43486;43.574;1.476;2023-08-12T12:29:50;8.77;;;4.80;;
54835;SDS011;43486;43.574;1.476;2023-08-12T12:32:17;11.20;;;6.05;;
54835;SDS011;43486;43.574;1.476;2023-08-12T12:34:43;22.02;;;7.03;;
54835;SDS011;43486;43.574;1.476;2023-08-12T12:37:09;13.60;;;5.93;;
54835;SDS011;43486;43.574;1.476;2023-08-12T12:39:34;9.80;;;5.07;;
54835;SDS011;43486;43.574;1.476;2023-08-12T12:42:00;11.25;;;5.22;;
54835;SDS011;43486;43.574;1.476;2023-08-12T12:44:26;10.38;;;5.22;;
54835;SDS011;43486;43.574;1.476;2023-08-12T12:46:51;14.02;;;5.68;;
54835;SDS011;43486;43.574;1.476;2023-08-12T12:49:17;17.90;;;5.78;;
54835;SDS011;43486;43.574;1.476;2023-08-12T12:51:42;7.07;;;4.90;;
54835;SDS011;43486;43.574;1.476;2023-08-12T12:54:08;11.63;;;5.70;;
54835;SDS011;43486;43.574;1.476;2023-08-12T12:56:33;8.32;;;5.00;;
54835;SDS011;43486;43.574;1.476;2023-08-12T12:58:58;8.25;;;5.15;;
54835;SDS011;43486;43.574;1.476;2023-08-12T13:01:24;9.75;;;5.63;;
54835;SDS011;43486;43.574;1.476;2023-08-12T13:03:49;8.25;;;5.47;;
54835;SDS011;43486;43.574;1.476;2023-08-12T13:06:14;22.65;;;5.60;;
54835;SDS011;43486;43.574;1.476;2023-08-12T13:08:40;10.80;;;5.90;;
54835;SDS011;43486;43.574;1.476;2023-08-12T13:11:05;11.73;;;5.53;;
54835;SDS011;43486;43.574;1.476;2023-08-12T13:13:31;12.13;;;6.28;;
54835;SDS011;43486;43.574;1.476;2023-08-12T13:15:56;9.65;;;6.95;;
54835;SDS011;43486;43.574;1.476;2023-08-12T13:18:21;9.77;;;6.13;;
54835;SDS011;43486;43.574;1.476;2023-08-12T13:20:47;11.45;;;6.07;;
54835;SDS011;43486;43.574;1.476;2023-08-12T13:23:13;11.18;;;6.00;;
54835;SDS011;43486;43.574;1.476;2023-08-12T13:25:39;8.55;;;4.88;;
54835;SDS011;43486;43.574;1.476;2023-08-12T13:28:04;10.55;;;5.20;;
54835;SDS011;43486;43.574;1.476;2023-08-12T13:30:30;6.85;;;4.97;;
54835;SDS011;43486;43.574;1.476;2023-08-12T13:32:56;11.98;;;6.25;;
54835;SDS011;43486;43.574;1.476;2023-08-12T13:35:22;17.20;;;6.50;;
54835;SDS011;43486;43.574;1.476;2023-08-12T13:37:48;13.10;;;5.10;;
54835;SDS011;43486;43.574;1.476;2023-08-12T13:40:14;7.60;;;4.63;;
54835;SDS011;43486;43.574;1.476;2023-08-12T13:42:41;7.82;;;4.47;;
54835;SDS011;43486;43.574;1.476;2023-08-12T13:45:06;9.02;;;5.15;;
54835;SDS011;43486;43.574;1.476;2023-08-12T13:47:33;10.05;;;4.60;;
54835;SDS011;43486;43.574;1.476;2023-08-12T13:49:59;14.10;;;6.00;;
54835;SDS011;43486;43.574;1.476;2023-08-12T13:52:24;9.25;;;4.68;;
54835;SDS011;43486;43.574;1.476;2023-08-12T13:54:50;11.63;;;5.57;;
54835;SDS011;43486;43.574;1.476;2023-08-12T13:57:15;14.50;;;6.10;;
54835;SDS011;43486;43.574;1.476;2023-08-12T13:59:40;11.20;;;5.38;;
54835;SDS011;43486;43.574;1.476;2023-08-12T14:02:08;10.35;;;5.07;;
54835;SDS011;43486;43.574;1.476;2023-08-12T14:04:37;10.80;;;6.25;;
54835;SDS011;43486;43.574;1.476;2023-08-12T14:07:03;10.05;;;5.32;;
54835;SDS011;43486;43.574;1.476;2023-08-12T14:09:29;13.00;;;6.13;;
54835;SDS011;43486;43.574;1.476;2023-08-12T14:11:54;13.30;;;4.25;;
54835;SDS011;43486;43.574;1.476;2023-08-12T14:14:20;8.85;;;5.57;;
54835;SDS011;43486;43.574;1.476;2023-08-12T14:16:45;7.80;;;4.57;;
54835;SDS011;43486;43.574;1.476;2023-08-12T14:19:11;14.45;;;5.50;;
54835;SDS011;43486;43.574;1.476;2023-08-12T14:21:36;15.15;;;5.68;;
54835;SDS011;43486;43.574;1.476;2023-08-12T14:24:02;8.15;;;5.07;;
54835;SDS011;43486;43.574;1.476;2023-08-12T14:26:27;8.25;;;5.22;;
54835;SDS011;43486;43.574;1.476;2023-08-12T14:28:52;8.75;;;5.70;;
54835;SDS011;43486;43.574;1.476;2023-08-12T14:31:18;8.45;;;6.07;;
54835;SDS011;43486;43.574;1.476;2023-08-12T14:33:43;12.48;;;5.95;;
54835;SDS011;43486;43.574;1.476;2023-08-12T14:36:09;12.90;;;5.50;;
54835;SDS011;43486;43.574;1.476;2023-08-12T14:38:34;10.38;;;5.18;;